createdAt,value
2018-12-02T00:00:20.151Z,99546.42
2018-12-02T00:02:47.939Z,99539.48
2018-12-02T00:05:15.974Z,99536.95
2018-12-02T00:07:43.844Z,99533.42
2018-12-02T00:10:13.915Z,99538.58
2018-12-02T00:12:41.618Z,99540.28
2018-12-02T00:15:13.096Z,99527.75
2018-12-02T00:17:40.829Z,99522.31
2018-12-02T00:20:13.517Z,99520.77
2018-12-02T00:22:41.437Z,99517.61
2018-12-02T00:25:11.651Z,99513.13
2018-12-02T00:27:39.765Z,99510.94
2018-12-02T00:30:21.147Z,99511.39
2018-12-02T00:32:48.865Z,99505.56
2018-12-02T00:35:17.534Z,99494.02
2018-12-02T00:37:51.630Z,99494.09
2018-12-02T00:40:20.722Z,99492.73
2018-12-02T00:42:59.567Z,99478.45
2018-12-02T00:45:30.067Z,99472.81
2018-12-02T00:47:57.721Z,99468.37
2018-12-02T00:50:25.502Z,99463.05
2018-12-02T00:52:56.876Z,99455.42
2018-12-02T00:55:31.511Z,99452.10
2018-12-02T00:57:59.189Z,99450.55
2018-12-02T01:00:26.874Z,99454.00
2018-12-02T01:02:54.717Z,99446.78
2018-12-02T01:05:22.834Z,99437.34
2018-12-02T01:07:50.545Z,99433.06
2018-12-02T01:10:20.593Z,99428.02
2018-12-02T01:12:49.954Z,99425.55
2018-12-02T01:15:19.461Z,99429.55
2018-12-02T01:17:47.216Z,99430.98
2018-12-02T01:20:16.281Z,99419.06
2018-12-02T01:22:44.154Z,99420.06
2018-12-02T01:25:13.012Z,99420.30
2018-12-02T01:27:47.445Z,99426.64
2018-12-02T01:30:18.130Z,99427.59
2018-12-02T01:32:45.860Z,99436.37
2018-12-02T01:35:14.917Z,99431.41
2018-12-02T01:37:42.784Z,99426.98
2018-12-02T01:40:13.052Z,99433.85
2018-12-02T01:42:41.499Z,99432.29
2018-12-02T01:45:12.828Z,99426.38
2018-12-02T01:47:40.568Z,99419.05
2018-12-02T01:50:13.589Z,99417.87
2018-12-02T01:52:42.200Z,99414.47
2018-12-02T01:55:17.688Z,99412.06
2018-12-02T01:57:45.355Z,99405.22
2018-12-02T02:00:24.951Z,99405.44
2018-12-02T02:02:53.437Z,99404.35
2018-12-02T02:05:22.239Z,99403.54
2018-12-02T02:07:49.892Z,99398.53
2018-12-02T02:10:21.854Z,99394.02
2018-12-02T02:12:49.806Z,99388.91
2018-12-02T02:15:17.772Z,99386.09
2018-12-02T02:17:46.414Z,99382.59
2018-12-02T02:20:18.080Z,99380.30
2018-12-02T02:22:46.525Z,99375.10
2018-12-02T02:25:15.611Z,99374.91
2018-12-02T02:27:45.979Z,99369.61
2018-12-02T02:30:18.229Z,99362.73
2018-12-02T02:32:45.910Z,99357.38
2018-12-02T02:35:14.497Z,99353.11
2018-12-02T02:37:43.192Z,99345.98
2018-12-02T02:40:13.687Z,99340.51
2018-12-02T02:42:41.339Z,99326.78
2018-12-02T02:45:11.059Z,99335.97
2018-12-02T02:47:38.763Z,99331.16
2018-12-02T02:50:20.971Z,99334.67
2018-12-02T02:52:54.114Z,99326.59
2018-12-02T02:55:21.778Z,99321.61
2018-12-02T02:57:49.467Z,99309.63
2018-12-02T03:00:18.899Z,99310.64
2018-12-02T03:02:46.562Z,99302.59
2018-12-02T03:05:15.024Z,99303.77
2018-12-02T03:07:42.790Z,99294.89
2018-12-02T03:10:13.853Z,99301.09
2018-12-02T03:12:42.373Z,99296.66
2018-12-02T03:15:11.754Z,99297.82
2018-12-02T03:17:39.539Z,99301.55
2018-12-02T03:20:10.177Z,99293.67
2018-12-02T03:22:37.982Z,99291.02
2018-12-02T03:25:10.754Z,99293.15
2018-12-02T03:27:38.488Z,99290.55
2018-12-02T03:30:12.591Z,99272.64
2018-12-02T03:32:40.460Z,99271.66
2018-12-02T03:35:11.537Z,99266.00
2018-12-02T03:37:39.210Z,99259.76
2018-12-02T03:40:13.215Z,99248.81
2018-12-02T03:42:40.875Z,99243.75
2018-12-02T03:45:11.481Z,99235.12
2018-12-02T03:47:39.181Z,99226.55
2018-12-02T03:50:17.450Z,99232.05
2018-12-02T03:52:42.147Z,99223.09
2018-12-02T03:55:09.910Z,99207.78
2018-12-02T03:57:37.604Z,99199.22
2018-12-02T04:00:19.889Z,99201.95
2018-12-02T04:02:47.990Z,99200.09
2018-12-02T04:05:17.131Z,99197.92
2018-12-02T04:07:44.796Z,99197.39
2018-12-02T04:10:14.752Z,99203.83
2018-12-02T04:12:42.629Z,99197.23
2018-12-02T04:15:13.256Z,99197.23
2018-12-02T04:17:41.634Z,99192.97
2018-12-02T04:20:12.069Z,99185.07
2018-12-02T04:22:40.004Z,99185.95
2018-12-02T04:25:11.349Z,99178.98
2018-12-02T04:27:39.053Z,99176.90
2018-12-02T04:30:13.117Z,99176.95
2018-12-02T04:32:40.800Z,99184.60
2018-12-02T04:35:19.725Z,99183.25
2018-12-02T04:37:47.381Z,99174.02
2018-12-02T04:40:15.002Z,99165.93
2018-12-02T04:42:42.686Z,99159.38
2018-12-02T04:45:18.463Z,99156.73
2018-12-02T04:47:46.251Z,99158.73
2018-12-02T04:50:16.247Z,99162.17
2018-12-02T04:52:43.930Z,99154.64
2018-12-02T04:55:11.673Z,99148.59
2018-12-02T04:57:39.369Z,99144.23
2018-12-02T05:00:15.242Z,99141.63
2018-12-02T05:02:47.065Z,99140.98
2018-12-02T05:05:18.498Z,99135.69
2018-12-02T05:07:46.159Z,99129.23
2018-12-02T05:10:18.109Z,99121.39
2018-12-02T05:12:46.054Z,99122.17
2018-12-02T05:15:15.218Z,99119.48
2018-12-02T05:17:42.949Z,99109.22
2018-12-02T05:20:17.601Z,99108.85
2018-12-02T05:22:45.267Z,99107.50
2018-12-02T05:25:17.524Z,99097.51
2018-12-02T05:27:42.776Z,99096.08
2018-12-02T05:30:18.982Z,99090.51
2018-12-02T05:32:51.026Z,99081.73
2018-12-02T05:35:18.705Z,99081.09
2018-12-02T05:37:46.364Z,99097.06
2018-12-02T05:40:18.617Z,99094.92
2018-12-02T05:42:46.310Z,99090.14
2018-12-02T05:45:15.297Z,99082.44
2018-12-02T05:47:43.184Z,99074.25
2018-12-02T05:50:15.334Z,99066.12
2018-12-02T05:52:43.904Z,99063.52
2018-12-02T05:55:13.085Z,99051.17
2018-12-02T05:57:41.040Z,99047.03
2018-12-02T06:00:13.548Z,99048.74
2018-12-02T06:02:41.245Z,99054.56
2018-12-02T06:05:10.511Z,99051.23
2018-12-02T06:07:38.213Z,99048.39
2018-12-02T06:10:13.440Z,99049.09
2018-12-02T06:12:41.205Z,99052.01
2018-12-02T06:15:11.353Z,99047.55
2018-12-02T06:17:39.348Z,99047.80
2018-12-02T06:20:18.210Z,99042.53
2018-12-02T06:22:47.324Z,99038.08
2018-12-02T06:25:15.090Z,99038.48
2018-12-02T06:27:42.979Z,99036.31
2018-12-02T06:30:14.146Z,99036.48
2018-12-02T06:32:41.823Z,99040.45
2018-12-02T06:35:11.331Z,99036.84
2018-12-02T06:37:38.978Z,99041.42
2018-12-02T06:40:19.505Z,99047.98
2018-12-02T06:42:47.433Z,99040.35
2018-12-02T06:45:15.227Z,99044.52
2018-12-02T06:47:42.963Z,99052.86
2018-12-02T06:50:27.413Z,99053.66
2018-12-02T06:52:56.416Z,99054.70
2018-12-02T06:55:53.063Z,99050.09
2018-12-02T06:58:45.101Z,99053.80
2018-12-02T07:01:38.154Z,99056.55
2018-12-02T07:04:13.889Z,99040.03
2018-12-02T07:06:41.551Z,99031.86
2018-12-02T07:09:09.361Z,99034.71
2018-12-02T07:11:37.109Z,99028.66
2018-12-02T07:14:04.974Z,99030.00
2018-12-02T07:16:32.692Z,99031.20
2018-12-02T07:19:05.899Z,99025.44
2018-12-02T07:21:36.762Z,99031.68
2018-12-02T07:24:08.350Z,99027.88
2018-12-02T07:26:38.982Z,99031.58
2018-12-02T07:29:06.611Z,99028.44
2018-12-02T07:31:34.274Z,99034.14
2018-12-02T07:34:02.771Z,99023.27
2018-12-02T07:36:30.415Z,99015.46
2018-12-02T07:40:12.159Z,99015.02
2018-12-02T07:42:39.867Z,99015.28
2018-12-02T07:45:07.543Z,99014.31
2018-12-02T07:47:35.281Z,99001.98
2018-12-02T07:50:03.792Z,98995.37
2018-12-02T07:52:31.522Z,98996.59
2018-12-02T07:54:59.185Z,99005.28
2018-12-02T07:57:26.803Z,99012.77
2018-12-02T07:59:54.560Z,99021.62
2018-12-02T08:02:22.198Z,99014.77
2018-12-02T08:04:49.860Z,99013.23
2018-12-02T08:07:23.993Z,99007.14
2018-12-02T08:12:44.895Z,99009.76
2018-12-02T08:15:27.222Z,98999.49
2018-12-02T08:17:54.877Z,98993.61
2018-12-02T08:20:22.567Z,98992.63
2018-12-02T08:22:51.562Z,98992.20
2018-12-02T08:25:18.846Z,98987.83
2018-12-02T08:27:47.228Z,98988.70
2018-12-02T08:30:21.530Z,98981.31
2018-12-02T08:32:49.225Z,98971.80
2018-12-02T08:35:18.608Z,98967.25
2018-12-02T08:37:49.232Z,98970.09
2018-12-02T08:40:16.947Z,98959.75
2018-12-02T08:42:44.707Z,98963.83
2018-12-02T08:45:14.887Z,98950.63
2018-12-02T08:47:43.780Z,98948.34
2018-12-02T08:50:17.018Z,98950.99
2018-12-02T08:52:45.982Z,98951.13
2018-12-02T08:55:17.183Z,98946.58
2018-12-02T08:57:45.457Z,98932.38
2018-12-02T09:00:15.777Z,98924.47
2018-12-02T09:02:45.481Z,98925.31
2018-12-02T09:05:14.166Z,98921.97
2018-12-02T09:07:42.557Z,98927.13
2018-12-02T09:10:19.945Z,98927.63
2018-12-02T09:12:50.268Z,98904.52
2018-12-02T09:15:17.959Z,98908.77
2018-12-02T09:17:45.911Z,98910.06
2018-12-02T09:20:17.890Z,98909.75
2018-12-02T09:22:45.595Z,98898.56
2018-12-02T09:25:14.413Z,98892.83
2018-12-02T09:27:42.109Z,98897.89
2018-12-02T09:30:14.937Z,98894.15
2018-12-02T09:32:43.349Z,98888.42
2018-12-02T09:35:11.274Z,98882.30
2018-12-02T09:37:39.037Z,98882.56
2018-12-02T09:40:11.756Z,98877.79
2018-12-02T09:42:40.905Z,98870.92
2018-12-02T09:45:11.585Z,98863.48
2018-12-02T09:47:39.317Z,98856.00
2018-12-02T09:50:09.425Z,98855.04
2018-12-02T09:52:37.943Z,98838.22
2018-12-02T09:55:12.054Z,98845.94
2018-12-02T09:57:39.720Z,98828.84
2018-12-02T10:00:13.752Z,98825.98
2018-12-02T10:02:41.471Z,98824.25
2018-12-02T10:05:09.671Z,98822.27
2018-12-02T10:07:37.972Z,98820.08
2018-12-02T10:10:14.860Z,98821.38
2018-12-02T10:12:46.176Z,98815.94
2018-12-02T10:15:15.020Z,98810.00
2018-12-02T10:17:54.082Z,98808.97
2018-12-02T10:20:22.426Z,98797.75
2018-12-02T10:22:50.097Z,98795.17
2018-12-02T10:25:18.684Z,98794.00
2018-12-02T10:27:47.239Z,98790.33
2018-12-02T10:30:17.792Z,98778.59
2018-12-02T10:32:47.935Z,98774.11
2018-12-02T10:35:17.384Z,98778.98
2018-12-02T10:37:46.034Z,98774.12
2018-12-02T10:40:20.613Z,98765.58
2018-12-02T10:42:48.945Z,98763.01
2018-12-02T10:45:20.132Z,98753.28
2018-12-02T10:47:49.073Z,98756.58
2018-12-02T10:50:40.769Z,98754.58
2018-12-02T10:53:20.680Z,98747.06
2018-12-02T10:55:57.907Z,98743.20
2018-12-02T10:58:28.569Z,98729.61
2018-12-02T11:01:05.622Z,98733.44
2018-12-02T11:03:33.458Z,98729.34
2018-12-02T11:06:02.831Z,98730.09
2018-12-02T11:08:30.941Z,98727.17
2018-12-02T11:11:00.609Z,98717.78
2018-12-02T11:13:28.526Z,98716.23
2018-12-02T11:15:58.265Z,98711.76
2018-12-02T11:18:26.157Z,98707.14
2018-12-02T11:20:54.247Z,98712.23
2018-12-02T11:23:23.136Z,98708.97
2018-12-02T11:25:52.254Z,98709.16
2018-12-02T11:28:20.518Z,98706.87
2018-12-02T11:30:48.315Z,98707.19
2018-12-02T11:33:16.038Z,98701.52
2018-12-02T11:35:44.298Z,98695.42
2018-12-02T11:38:11.979Z,98691.45
2018-12-02T11:40:40.770Z,98692.78
2018-12-02T11:43:09.525Z,98687.57
2018-12-02T11:45:37.494Z,98673.16
2018-12-02T11:48:07.246Z,98677.05
2018-12-02T11:50:35.188Z,98663.58
2018-12-02T11:53:02.846Z,98659.93
2018-12-02T11:55:30.537Z,98669.39
2018-12-02T11:57:58.261Z,98666.80
2018-12-02T12:00:27.972Z,98663.61
2018-12-02T12:02:57.404Z,98660.89
2018-12-02T12:05:25.278Z,98658.28
2018-12-02T12:07:53.592Z,98651.90
2018-12-02T12:10:25.774Z,98650.72
2018-12-02T12:12:58.194Z,98645.41
2018-12-02T12:16:56.249Z,98637.83
2018-12-02T12:19:24.193Z,98641.57
2018-12-02T12:21:52.008Z,98638.51
2018-12-02T12:24:19.796Z,98627.48
2018-12-02T12:26:47.660Z,98629.63
2018-12-02T12:29:15.490Z,98629.89
2018-12-02T12:31:43.195Z,98633.68
2018-12-02T12:34:12.570Z,98626.82
2018-12-02T12:36:40.753Z,98622.70
2018-12-02T12:39:09.779Z,98622.19
2018-12-02T12:41:37.580Z,98619.02
2018-12-02T12:44:09.867Z,98614.06
2018-12-02T12:46:44.437Z,98618.77
2018-12-02T12:49:13.516Z,98605.06
2018-12-02T12:51:41.240Z,98607.09
2018-12-02T12:54:09.609Z,98609.58
2018-12-02T12:56:38.278Z,98606.50
2018-12-02T12:59:05.933Z,98606.48
2018-12-02T13:01:33.586Z,98601.84
2018-12-02T13:04:01.351Z,98599.95
2018-12-02T13:06:29.067Z,98599.01
2018-12-02T13:08:56.688Z,98589.44
2018-12-02T13:11:25.684Z,98580.42
2018-12-02T13:13:53.536Z,98589.98
2018-12-02T13:16:21.548Z,98577.06
2018-12-02T13:18:49.261Z,98587.05
2018-12-02T13:21:17.083Z,98584.30
2018-12-02T13:23:45.711Z,98588.23
2018-12-02T13:26:13.441Z,98585.88
2018-12-02T13:28:42.896Z,98582.32
2018-12-02T13:31:11.587Z,98579.71
2018-12-02T13:33:39.310Z,98572.56
2018-12-02T13:36:12.382Z,98576.66
2018-12-02T13:38:40.473Z,98568.23
2018-12-02T13:41:08.236Z,98561.72
2018-12-02T13:43:36.713Z,98558.97
2018-12-02T13:46:04.770Z,98559.33
2018-12-02T13:48:32.559Z,98560.83
2018-12-02T13:51:00.780Z,98560.81
2018-12-02T13:53:30.109Z,98556.65
2018-12-02T13:55:57.873Z,98561.05
2018-12-02T13:58:25.559Z,98554.58
2018-12-02T14:00:53.299Z,98553.73
2018-12-02T14:03:25.798Z,98562.51
2018-12-02T14:05:53.746Z,98548.23
2018-12-02T14:08:21.409Z,98552.50
2018-12-02T14:10:49.067Z,98543.42
2018-12-02T14:13:23.723Z,98550.12
2018-12-02T14:17:06.445Z,98546.66
2018-12-02T14:19:34.512Z,98547.80
2018-12-02T14:22:02.259Z,98548.55
2018-12-02T14:24:30.154Z,98543.01
2018-12-02T14:26:57.893Z,98549.04
2018-12-02T14:29:33.711Z,98538.83
2018-12-02T14:32:05.931Z,98538.56
2018-12-02T14:34:33.804Z,98529.43
2018-12-02T14:37:01.581Z,98526.90
2018-12-02T14:39:29.213Z,98531.33
2018-12-02T14:41:56.929Z,98525.88
2018-12-02T14:44:26.541Z,98529.86
2018-12-02T14:46:54.513Z,98529.70
2018-12-02T14:49:22.916Z,98520.04
2018-12-02T14:51:50.822Z,98517.44
2018-12-02T14:54:19.400Z,98527.11
2018-12-02T14:56:47.090Z,98515.66
2018-12-02T14:59:17.626Z,98515.37
2018-12-02T15:01:45.414Z,98520.00
2018-12-02T15:04:13.592Z,98516.31
2018-12-02T15:06:42.343Z,98524.22
2018-12-02T15:09:10.925Z,98527.01
2018-12-02T15:11:38.711Z,98528.55
2018-12-02T15:14:13.129Z,98512.71
2018-12-02T15:16:41.685Z,98513.88
2018-12-02T15:19:11.198Z,98516.60
2018-12-02T15:21:38.978Z,98513.48
2018-12-02T15:24:10.678Z,98510.69
2018-12-02T15:26:39.386Z,98513.81
2018-12-02T15:29:07.145Z,98502.00
2018-12-02T15:31:35.041Z,98511.59
2018-12-02T15:34:03.412Z,98502.23
2018-12-02T15:36:32.148Z,98501.36
2018-12-02T15:39:00.603Z,98504.97
2018-12-02T15:41:28.488Z,98509.81
2018-12-02T15:43:56.763Z,98505.59
2018-12-02T15:46:24.564Z,98508.16
2018-12-02T15:48:52.461Z,98502.43
2018-12-02T15:51:20.668Z,98500.92
2018-12-02T15:53:53.099Z,98517.20
2018-12-02T15:56:21.110Z,98505.87
2018-12-02T15:58:49.879Z,98504.02
2018-12-02T16:01:18.086Z,98506.50
2018-12-02T16:03:48.003Z,98505.67
2018-12-02T16:06:16.601Z,98510.17
2018-12-02T16:08:44.506Z,98503.70
2018-12-02T16:11:12.329Z,98499.59
2018-12-02T16:13:41.046Z,98498.83
2018-12-02T16:16:08.929Z,98499.30
2018-12-02T16:18:36.914Z,98500.22
2018-12-02T16:21:06.260Z,98504.59
2018-12-02T16:23:34.122Z,98499.19
2018-12-02T16:26:01.921Z,98502.62
2018-12-02T16:28:30.716Z,98494.17
2018-12-02T16:30:59.940Z,98499.84
2018-12-02T16:33:27.813Z,98494.69
2018-12-02T16:36:00.447Z,98495.37
2018-12-02T16:38:28.222Z,98491.46
2018-12-02T16:40:55.912Z,98491.16
2018-12-02T16:43:28.886Z,98486.94
2018-12-02T16:45:57.561Z,98487.44
2018-12-02T16:48:26.315Z,98493.68
2018-12-02T16:50:54.433Z,98492.47
2018-12-02T16:53:27.064Z,98492.94
2018-12-02T16:56:04.429Z,98497.23
2018-12-02T16:59:11.996Z,98497.08
2018-12-02T17:04:23.555Z,98499.15
2018-12-02T17:06:51.902Z,98500.63
2018-12-02T17:09:20.068Z,98501.34
2018-12-02T17:11:48.121Z,98497.95
2018-12-02T17:14:15.886Z,98493.23
2018-12-02T17:16:43.523Z,98498.32
2018-12-02T17:19:11.203Z,98501.88
2018-12-02T17:21:39.476Z,98493.03
2018-12-02T17:24:09.116Z,98503.46
2018-12-02T17:26:37.155Z,98517.48
2018-12-02T17:29:08.338Z,98505.20
2018-12-02T17:31:43.591Z,98498.87
2018-12-02T17:34:12.098Z,98504.01
2018-12-02T17:36:40.725Z,98510.09
2018-12-02T17:39:16.286Z,98499.11
2018-12-02T17:41:47.790Z,98505.87
2018-12-02T17:44:15.648Z,98501.71
2018-12-02T17:49:21.557Z,98505.82
2018-12-02T17:51:49.173Z,98498.23
2018-12-02T17:54:16.909Z,98508.03
2018-12-02T17:56:45.441Z,98510.01
2018-12-02T17:59:14.429Z,98504.83
2018-12-02T18:01:42.932Z,98516.84
2018-12-02T18:04:11.355Z,98515.48
2018-12-02T18:06:39.588Z,98514.97
2018-12-02T18:09:10.591Z,98515.25
2018-12-02T18:11:38.542Z,98519.91
2018-12-02T18:14:06.529Z,98522.74
2018-12-02T18:16:35.140Z,98525.34
2018-12-02T18:19:02.957Z,98521.09
2018-12-02T18:21:31.382Z,98528.38
2018-12-02T18:23:59.382Z,98519.72
2018-12-02T18:26:27.089Z,98522.73
2018-12-02T18:28:55.267Z,98514.40
2018-12-02T18:31:22.970Z,98517.29
2018-12-02T18:33:51.618Z,98521.27
2018-12-02T18:36:27.055Z,98511.17
2018-12-02T18:38:55.027Z,98516.98
2018-12-02T18:41:34.082Z,98520.47
2018-12-02T18:44:01.961Z,98527.58
2018-12-02T18:46:29.834Z,98522.84
2018-12-02T18:48:57.903Z,98525.44
2018-12-02T18:51:25.630Z,98540.52
2018-12-02T18:53:54.707Z,98540.06
2018-12-02T18:56:23.189Z,98545.05
2018-12-02T18:58:51.952Z,98539.41
2018-12-02T19:01:20.319Z,98538.08
2018-12-02T19:03:48.022Z,98533.47
2018-12-02T19:06:17.557Z,98524.03
2018-12-02T19:08:45.308Z,98529.57
2018-12-02T19:11:14.603Z,98523.41
2018-12-02T19:13:43.679Z,98537.17
2018-12-02T19:16:10.446Z,98530.05
2018-12-02T19:18:38.806Z,98536.05
2018-12-02T19:21:14.086Z,98532.97
2018-12-02T19:23:42.062Z,98530.87
2018-12-02T19:26:09.730Z,98534.72
2018-12-02T19:28:37.598Z,98522.27
2018-12-02T19:31:05.377Z,98537.75
2018-12-02T19:33:33.354Z,98540.71
2018-12-02T19:36:21.033Z,98536.92
2018-12-02T19:38:48.696Z,98535.91
2018-12-02T19:41:16.477Z,98532.53
2018-12-02T19:43:44.742Z,98546.25
2018-12-02T19:46:12.050Z,98558.00
2018-12-02T19:48:39.777Z,98543.80
2018-12-02T19:51:07.439Z,98546.73
2018-12-02T19:53:35.849Z,98557.33
2018-12-02T19:56:03.527Z,98558.89
2018-12-02T19:58:31.407Z,98552.89
2018-12-02T20:00:59.109Z,98555.03
2018-12-02T20:03:26.853Z,98555.16
2018-12-02T20:05:54.763Z,98556.61
2018-12-02T20:08:22.525Z,98564.70
2018-12-02T20:10:54.534Z,98568.78
2018-12-02T20:13:23.342Z,98567.13
2018-12-02T20:15:57.833Z,98566.07
2018-12-02T20:18:26.094Z,98580.58
2018-12-02T20:20:57.950Z,98562.51
2018-12-02T20:23:32.548Z,98568.31
2018-12-02T20:26:01.803Z,98565.88
2018-12-02T20:28:34.275Z,98555.16
2018-12-02T20:31:06.429Z,98562.31
2018-12-02T20:33:34.773Z,98564.82
2018-12-02T20:36:02.499Z,98560.00
2018-12-02T20:38:30.149Z,98554.73
2018-12-02T20:40:57.882Z,98562.48
2018-12-02T20:43:25.620Z,98562.27
2018-12-02T20:45:53.306Z,98565.80
2018-12-02T20:48:20.994Z,98566.28
2018-12-02T20:50:48.734Z,98576.67
2018-12-02T20:53:16.428Z,98568.53
2018-12-02T20:55:44.133Z,98569.02
2018-12-02T20:58:11.845Z,98578.07
2018-12-02T21:00:39.512Z,98575.70
2018-12-02T21:03:10.174Z,98587.16
2018-12-02T21:05:41.017Z,98584.92
2018-12-02T21:08:08.779Z,98581.96
2018-12-02T21:10:36.535Z,98575.94
2018-12-02T21:13:04.286Z,98573.51
2018-12-02T21:15:32.045Z,98572.92
2018-12-02T21:18:00.023Z,98575.16
2018-12-02T21:20:27.669Z,98571.98
2018-12-02T21:22:55.337Z,98572.98
2018-12-02T21:25:25.738Z,98567.08
2018-12-02T21:27:53.450Z,98575.80
2018-12-02T21:30:26.235Z,98583.63
2018-12-02T21:32:53.939Z,98577.55
2018-12-02T21:35:21.618Z,98577.83
2018-12-02T21:37:51.165Z,98575.86
2018-12-02T21:40:18.863Z,98572.64
2018-12-02T21:42:46.511Z,98572.59
2018-12-02T21:45:15.891Z,98585.27
2018-12-02T21:47:49.518Z,98598.89
2018-12-02T21:50:33.850Z,98596.19
2018-12-02T21:53:01.711Z,98589.97
2018-12-02T21:55:29.404Z,98589.27
2018-12-02T21:57:57.065Z,98588.85
2018-12-02T22:00:31.426Z,98590.09
2018-12-02T22:02:59.117Z,98596.94
2018-12-02T22:05:26.838Z,98594.18
2018-12-02T22:07:54.559Z,98594.50
2018-12-02T22:10:30.055Z,98584.78
2018-12-02T22:12:57.213Z,98592.30
2018-12-02T22:15:25.117Z,98600.22
2018-12-02T22:17:52.817Z,98599.51
2018-12-02T22:20:20.533Z,98596.59
2018-12-02T22:22:48.274Z,98602.72
2018-12-02T22:25:18.569Z,98602.25
2018-12-02T22:27:48.143Z,98601.30
2018-12-02T22:30:17.501Z,98602.60
2018-12-02T22:32:45.617Z,98601.72
2018-12-02T22:35:14.452Z,98602.70
2018-12-02T22:37:43.182Z,98602.98
2018-12-02T22:40:23.030Z,98595.55
2018-12-02T22:42:52.083Z,98595.87
2018-12-02T22:45:25.956Z,98594.75
2018-12-02T22:47:53.704Z,98604.70
2018-12-02T22:50:24.874Z,98600.89
2018-12-02T22:52:54.289Z,98602.67
2018-12-02T22:55:22.038Z,98604.72
2018-12-02T22:57:49.689Z,98605.21
2018-12-02T23:00:31.018Z,98599.91
2018-12-02T23:03:09.114Z,98592.80
2018-12-02T23:05:36.902Z,98584.63
2018-12-02T23:08:05.063Z,98587.51
2018-12-02T23:10:32.735Z,98587.59
2018-12-02T23:13:00.449Z,98586.08
2018-12-02T23:15:28.207Z,98592.91
2018-12-02T23:17:55.950Z,98591.16
2018-12-02T23:20:23.750Z,98586.62
2018-12-02T23:22:51.479Z,98577.27
2018-12-02T23:25:19.314Z,98590.86
2018-12-02T23:27:47.066Z,98580.97
2018-12-02T23:30:18.635Z,98578.57
2018-12-02T23:32:46.472Z,98581.69
2018-12-02T23:35:14.235Z,98574.90
2018-12-02T23:37:41.956Z,98577.23
2018-12-02T23:40:20.520Z,98567.09
2018-12-02T23:42:48.237Z,98566.61
2018-12-02T23:45:16.609Z,98575.19
2018-12-02T23:47:44.248Z,98568.98
2018-12-02T23:50:14.504Z,98568.50
2018-12-02T23:52:42.200Z,98572.58
2018-12-02T23:55:12.217Z,98567.36
2018-12-02T23:57:39.907Z,98559.63
